createdAt,value
2022-09-22T00:01:13.377Z,21.43
2022-09-22T00:04:29.931Z,21.68
2022-09-22T00:07:45.879Z,20.63
2022-09-22T00:11:17.970Z,20.23
2022-09-22T00:14:35.517Z,20.58
2022-09-22T00:17:52.384Z,20.55
2022-09-22T00:21:13.434Z,21.80
2022-09-22T00:24:32.032Z,21.20
2022-09-22T00:27:49.928Z,23.07
2022-09-22T00:31:08.051Z,22.15
2022-09-22T00:34:27.259Z,23.33
2022-09-22T00:37:43.442Z,23.90
2022-09-22T00:41:01.629Z,22.70
2022-09-22T00:44:44.634Z,22.70
2022-09-22T00:48:00.774Z,24.03
2022-09-22T00:51:21.180Z,23.23
2022-09-22T00:54:37.520Z,22.40
2022-09-22T00:57:55.596Z,22.90
2022-09-22T01:01:12.526Z,24.08
2022-09-22T01:04:28.813Z,23.73
2022-09-22T01:07:45.505Z,23.48
2022-09-22T01:11:02.644Z,23.05
2022-09-22T01:14:24.643Z,22.15
2022-09-22T01:17:47.378Z,23.45
2022-09-22T01:21:29.567Z,21.28
2022-09-22T01:25:07.011Z,21.30
2022-09-22T01:28:59.866Z,23.78
2022-09-22T01:32:21.989Z,22.73
2022-09-22T01:35:45.397Z,23.65
2022-09-22T01:39:11.045Z,21.40
2022-09-22T01:42:32.541Z,21.73
2022-09-22T01:45:51.957Z,21.48
2022-09-22T01:49:12.105Z,21.58
2022-09-22T01:52:32.874Z,22.15
2022-09-22T01:55:51.998Z,21.43
2022-09-22T01:59:12.006Z,22.05
2022-09-22T02:02:33.195Z,21.13
2022-09-22T02:05:54.768Z,21.53
2022-09-22T02:09:15.071Z,20.75
2022-09-22T02:12:31.262Z,21.48
2022-09-22T02:16:05.566Z,21.30
2022-09-22T02:19:25.971Z,22.43
2022-09-22T02:22:42.376Z,22.43
2022-09-22T02:25:59.559Z,22.45
2022-09-22T02:29:18.584Z,23.80
2022-09-22T02:32:37.093Z,22.63
2022-09-22T02:35:58.508Z,22.90
2022-09-22T02:39:20.174Z,22.35
2022-09-22T02:42:40.855Z,21.63
2022-09-22T02:46:01.108Z,22.23
2022-09-22T02:49:21.783Z,21.18
2022-09-22T02:52:37.726Z,21.85
2022-09-22T02:55:54.803Z,20.48
2022-09-22T02:59:11.507Z,20.03
2022-09-22T03:02:27.758Z,21.08
2022-09-22T03:05:44.340Z,22.10
2022-09-22T03:09:00.573Z,21.38
2022-09-22T03:12:17.032Z,22.08
2022-09-22T03:15:33.431Z,20.90
2022-09-22T03:18:49.467Z,20.45
2022-09-22T03:22:05.423Z,20.63
2022-09-22T03:25:21.768Z,20.25
2022-09-22T03:28:37.714Z,19.73
2022-09-22T03:31:53.930Z,19.60
2022-09-22T03:35:10.542Z,19.75
2022-09-22T03:38:26.437Z,18.25
2022-09-22T03:41:42.744Z,19.48
2022-09-22T03:44:59.435Z,19.45
2022-09-22T03:48:15.873Z,18.38
2022-09-22T03:51:35.158Z,18.60
2022-09-22T03:58:04.637Z,17.10
2022-09-22T04:01:21.326Z,18.98
2022-09-22T04:04:38.451Z,17.33
2022-09-22T04:07:54.602Z,17.15
2022-09-22T04:11:11.980Z,17.48
2022-09-22T04:14:28.311Z,17.90
2022-09-22T04:17:46.526Z,17.28
2022-09-22T04:21:05.867Z,17.00
2022-09-22T04:27:40.539Z,16.18
2022-09-22T04:31:02.614Z,16.33
2022-09-22T04:34:18.967Z,17.00
2022-09-22T04:37:36.283Z,17.13
2022-09-22T04:40:52.440Z,16.75
2022-09-22T04:44:23.809Z,16.00
2022-09-22T04:47:41.002Z,15.93
2022-09-22T04:50:56.981Z,15.00
2022-09-22T04:54:16.606Z,15.23
2022-09-22T04:57:32.584Z,14.85
2022-09-22T05:00:48.799Z,15.18
2022-09-22T05:04:04.766Z,14.85
2022-09-22T05:07:20.861Z,14.85
2022-09-22T05:10:38.097Z,14.50
2022-09-22T05:13:55.884Z,15.30
2022-09-22T05:17:12.109Z,15.00
2022-09-22T05:20:29.118Z,14.50
2022-09-22T05:23:45.636Z,15.48
2022-09-22T05:27:01.741Z,20.50
2022-09-22T05:30:20.126Z,16.98
2022-09-22T05:33:38.075Z,16.88
2022-09-22T05:36:57.250Z,16.10
2022-09-22T05:40:15.933Z,15.70
2022-09-22T05:43:32.410Z,15.73
2022-09-22T05:46:48.564Z,15.10
2022-09-22T05:50:04.764Z,15.23
2022-09-22T05:53:23.344Z,15.53
2022-09-22T05:56:40.775Z,15.57
2022-09-22T05:59:56.797Z,15.73
2022-09-22T06:03:14.109Z,14.33
2022-09-22T06:06:30.320Z,14.30
2022-09-22T06:09:46.486Z,12.73
2022-09-22T06:13:08.852Z,12.90
2022-09-22T06:16:25.547Z,10.05
2022-09-22T06:19:41.675Z,11.10
2022-09-22T06:22:57.819Z,9.18
2022-09-22T06:26:14.116Z,9.65
2022-09-22T06:29:30.898Z,8.80
2022-09-22T06:32:49.269Z,8.93
2022-09-22T06:36:06.860Z,8.15
2022-09-22T06:39:23.187Z,8.20
2022-09-22T06:42:39.287Z,7.43
2022-09-22T06:45:56.515Z,7.50
2022-09-22T06:49:14.689Z,7.28
2022-09-22T06:52:30.902Z,6.95
2022-09-22T06:55:52.497Z,7.60
2022-09-22T06:59:11.054Z,6.33
2022-09-22T07:05:46.598Z,7.68
2022-09-22T07:09:02.840Z,7.65
2022-09-22T07:12:20.947Z,7.98
2022-09-22T07:15:46.067Z,20.20
2022-09-22T07:19:05.717Z,10.83
2022-09-22T07:22:22.613Z,8.98
2022-09-22T07:25:41.176Z,8.63
2022-09-22T07:28:59.924Z,7.68
2022-09-22T07:32:18.726Z,8.10
2022-09-22T07:35:38.764Z,9.13
2022-09-22T07:38:58.205Z,7.80
2022-09-22T07:42:14.922Z,7.73
2022-09-22T07:45:30.975Z,7.20
2022-09-22T07:48:49.656Z,7.08
2022-09-22T07:52:06.140Z,7.18
2022-09-22T07:55:23.049Z,6.50
2022-09-22T07:58:40.723Z,7.40
2022-09-22T08:01:58.914Z,6.25
2022-09-22T08:05:17.351Z,6.15
2022-09-22T08:08:35.349Z,6.40
2022-09-22T08:11:54.844Z,7.65
2022-09-22T08:15:11.841Z,6.38
2022-09-22T08:18:28.210Z,7.23
2022-09-22T08:21:49.664Z,7.18
2022-09-22T08:25:06.730Z,6.65
2022-09-22T08:28:22.721Z,6.75
2022-09-22T08:31:41.952Z,6.18
2022-09-22T08:34:58.870Z,6.70
2022-09-22T08:38:15.197Z,6.38
2022-09-22T08:41:38.997Z,6.00
2022-09-22T08:45:04.935Z,6.00
2022-09-22T08:48:40.450Z,5.75
2022-09-22T08:52:02.102Z,6.38
2022-09-22T08:55:23.814Z,6.28
2022-09-22T08:58:57.095Z,6.03
2022-09-22T09:02:55.859Z,5.78
2022-09-22T09:06:18.962Z,4.45
2022-09-22T09:09:51.157Z,4.90
2022-09-22T09:13:23.066Z,5.13
2022-09-22T09:16:52.450Z,5.33
2022-09-22T09:20:19.760Z,5.05
2022-09-22T09:27:05.307Z,4.60
2022-09-22T09:30:27.365Z,4.43
2022-09-22T09:33:52.866Z,3.90
2022-09-22T09:37:18.747Z,5.43
2022-09-22T09:45:29.759Z,3.03
2022-09-22T09:49:15.671Z,2.38
2022-09-22T09:52:34.287Z,2.63
2022-09-22T09:55:51.422Z,2.95
2022-09-22T09:59:24.672Z,3.08
2022-09-22T10:02:45.119Z,2.30
2022-09-22T10:06:09.859Z,2.43
2022-09-22T10:09:36.374Z,2.55
2022-09-22T10:12:52.504Z,2.38
2022-09-22T10:16:36.965Z,1.50
2022-09-22T10:19:53.107Z,1.70
2022-09-22T10:23:27.935Z,1.65
2022-09-22T10:26:44.108Z,1.63
2022-09-22T10:30:28.400Z,1.50
2022-09-22T10:33:46.219Z,1.70
2022-09-22T10:37:02.901Z,2.30
2022-09-22T10:40:24.421Z,1.90
2022-09-22T10:43:55.830Z,2.00
2022-09-22T10:47:33.155Z,1.80
2022-09-22T10:51:01.410Z,2.08
2022-09-22T10:54:36.641Z,2.20
2022-09-22T10:58:13.845Z,2.55
2022-09-22T11:01:48.381Z,2.48
2022-09-22T11:05:19.550Z,2.93
2022-09-22T11:08:52.363Z,2.78
2022-09-22T11:12:24.343Z,2.38
2022-09-22T11:15:55.141Z,3.03
2022-09-22T11:19:49.567Z,2.68
2022-09-22T11:24:03.054Z,1.83
2022-09-22T11:27:25.075Z,2.03
2022-09-22T11:30:47.998Z,2.20
2022-09-22T11:34:46.366Z,1.95
2022-09-22T11:38:16.667Z,1.97
2022-09-22T11:41:44.484Z,2.58
2022-09-22T11:45:10.903Z,2.80
2022-09-22T11:48:40.745Z,2.28
2022-09-22T11:52:17.298Z,1.93
2022-09-22T11:55:45.134Z,1.75
2022-09-22T11:59:09.532Z,2.00
2022-09-22T12:02:37.946Z,2.10
2022-09-22T12:05:59.184Z,2.63
2022-09-22T12:09:40.865Z,2.35
2022-09-22T12:13:00.448Z,2.20
2022-09-22T12:16:23.265Z,2.10
2022-09-22T12:19:49.358Z,1.85
2022-09-22T12:23:36.775Z,2.23
2022-09-22T12:26:56.351Z,1.90
2022-09-22T12:30:27.184Z,2.50
2022-09-22T12:33:57.391Z,2.50
2022-09-22T12:37:36.550Z,2.50
2022-09-22T12:40:58.514Z,2.78
2022-09-22T12:44:30.340Z,2.08
2022-09-22T12:48:03.183Z,2.70
2022-09-22T12:51:39.859Z,1.93
2022-09-22T12:54:59.135Z,2.60
2022-09-22T12:58:48.588Z,2.60
2022-09-22T13:02:43.037Z,2.30
2022-09-22T13:06:05.100Z,1.90
2022-09-22T13:09:31.738Z,2.23
2022-09-22T13:12:55.858Z,2.00
2022-09-22T13:16:33.286Z,2.00
2022-09-22T13:20:04.522Z,1.93
2022-09-22T13:23:23.084Z,1.60
2022-09-22T13:26:44.737Z,1.88
2022-09-22T13:30:12.222Z,1.58
2022-09-22T13:33:34.501Z,2.23
2022-09-22T13:36:53.885Z,1.90
2022-09-22T13:40:12.142Z,1.90
2022-09-22T13:43:42.807Z,1.93
2022-09-22T13:47:01.431Z,2.10
2022-09-22T13:50:33.663Z,2.50
2022-09-22T13:53:56.315Z,1.90
2022-09-22T13:57:25.075Z,2.40
2022-09-22T14:01:12.203Z,2.05
2022-09-22T14:04:28.644Z,2.38
2022-09-22T14:08:01.267Z,2.50
2022-09-22T14:11:08.368Z,2.70
2022-09-22T14:14:36.653Z,3.55
2022-09-22T14:18:04.575Z,2.60
2022-09-22T14:21:23.132Z,3.03
2022-09-22T14:24:43.108Z,5.45
2022-09-22T14:28:07.366Z,4.25
2022-09-22T14:31:29.086Z,3.55
2022-09-22T14:34:50.586Z,3.83
2022-09-22T14:38:19.971Z,3.73
2022-09-22T14:41:34.481Z,3.78
2022-09-22T14:44:56.721Z,3.80
2022-09-22T14:48:39.175Z,2.73
2022-09-22T14:51:57.519Z,2.85
2022-09-22T14:55:25.788Z,2.65
2022-09-22T14:58:46.100Z,2.33
2022-09-22T15:02:26.594Z,2.90
2022-09-22T15:05:45.141Z,2.80
2022-09-22T15:09:04.194Z,2.80
2022-09-22T15:12:49.352Z,7.23
2022-09-22T15:16:07.093Z,3.18
2022-09-22T15:19:23.753Z,2.93
2022-09-22T15:22:40.782Z,2.95
2022-09-22T15:25:58.505Z,3.08
2022-09-22T15:29:18.077Z,2.85
2022-09-22T15:32:34.617Z,4.60
2022-09-22T15:36:00.493Z,4.00
2022-09-22T15:39:22.160Z,3.73
2022-09-22T15:42:48.231Z,3.83
2022-09-22T15:45:59.418Z,4.00
2022-09-22T15:49:23.661Z,4.00
2022-09-22T15:52:40.080Z,4.13
2022-09-22T15:55:58.802Z,4.10
2022-09-22T15:59:20.317Z,4.60
2022-09-22T16:02:44.743Z,4.98
2022-09-22T16:06:06.690Z,4.48
2022-09-22T16:09:25.353Z,4.93
2022-09-22T16:12:42.525Z,4.60
2022-09-22T16:16:03.740Z,5.48
2022-09-22T16:19:29.080Z,4.90
2022-09-22T16:22:51.712Z,4.65
2022-09-22T16:26:08.613Z,4.33
2022-09-22T16:29:30.156Z,4.88
2022-09-22T16:32:46.890Z,4.68
2022-09-22T16:36:11.110Z,4.00
2022-09-22T16:39:43.440Z,4.23
2022-09-22T16:43:01.414Z,5.00
2022-09-22T16:46:34.866Z,4.83
2022-09-22T16:49:59.640Z,4.10
2022-09-22T16:53:18.776Z,5.00
2022-09-22T16:56:50.749Z,6.35
2022-09-22T17:00:24.417Z,4.88
2022-09-22T17:03:42.366Z,5.00
2022-09-22T17:06:59.456Z,4.88
2022-09-22T17:10:21.423Z,4.93
2022-09-22T17:13:58.905Z,4.93
2022-09-22T17:17:23.961Z,4.90
2022-09-22T17:20:50.969Z,4.95
2022-09-22T17:24:14.493Z,5.13
2022-09-22T17:27:34.510Z,4.43
2022-09-22T17:31:12.812Z,5.38
2022-09-22T17:34:51.732Z,40.45
2022-09-22T17:38:29.516Z,12.78
2022-09-22T17:41:56.320Z,7.10
2022-09-22T17:45:21.004Z,6.70
2022-09-22T17:48:51.869Z,6.03
2022-09-22T17:52:38.775Z,6.13
2022-09-22T17:56:10.443Z,6.38
2022-09-22T17:59:35.412Z,6.28
2022-09-22T18:03:09.304Z,6.90
2022-09-22T18:06:49.541Z,7.63
2022-09-22T18:10:15.912Z,8.00
2022-09-22T18:13:39.533Z,7.83
2022-09-22T18:17:01.980Z,8.50
2022-09-22T18:20:25.231Z,7.88
2022-09-22T18:23:49.195Z,8.00
2022-09-22T18:27:23.197Z,7.55
2022-09-22T18:31:04.452Z,7.93
2022-09-22T18:34:30.618Z,7.65
2022-09-22T18:38:04.324Z,7.85
2022-09-22T18:41:24.524Z,7.88
2022-09-22T18:44:55.961Z,8.15
2022-09-22T18:48:36.949Z,8.50
2022-09-22T18:52:07.018Z,9.05
2022-09-22T18:58:41.705Z,9.33
2022-09-22T19:02:01.507Z,9.13
2022-09-22T19:05:24.603Z,9.55
2022-09-22T19:08:42.104Z,9.98
2022-09-22T19:12:02.552Z,9.98
2022-09-22T19:15:27.510Z,10.20
2022-09-22T19:18:52.267Z,10.03
2022-09-22T19:22:13.980Z,11.10
2022-09-22T19:25:38.475Z,10.50
2022-09-22T19:29:01.843Z,12.13
2022-09-22T19:32:31.174Z,11.25
2022-09-22T19:36:00.346Z,12.08
2022-09-22T19:39:25.992Z,12.10
2022-09-22T19:42:49.456Z,11.70
2022-09-22T19:46:06.483Z,11.83
2022-09-22T19:49:26.358Z,11.40
2022-09-22T19:52:49.062Z,11.80
2022-09-22T19:56:14.790Z,11.83
2022-09-22T19:59:38.580Z,12.10
2022-09-22T20:03:07.206Z,11.75
2022-09-22T20:06:29.405Z,12.75
2022-09-22T20:09:51.558Z,12.63
2022-09-22T20:13:14.725Z,13.70
2022-09-22T20:16:42.519Z,12.80
2022-09-22T20:19:59.870Z,14.38
2022-09-22T20:23:27.164Z,12.58
2022-09-22T20:26:43.592Z,13.38
2022-09-22T20:30:00.575Z,12.70
2022-09-22T20:33:23.347Z,13.25
2022-09-22T20:36:40.225Z,13.28
2022-09-22T20:39:59.098Z,12.80
2022-09-22T20:43:17.953Z,12.33
2022-09-22T20:46:34.819Z,12.93
2022-09-22T20:49:52.144Z,12.15
2022-09-22T20:53:09.748Z,13.75
2022-09-22T20:56:26.137Z,12.93
2022-09-22T20:59:44.388Z,12.80
2022-09-22T21:03:02.810Z,13.43
2022-09-22T21:06:20.709Z,13.53
2022-09-22T21:09:51.256Z,12.85
2022-09-22T21:13:07.782Z,13.23
2022-09-22T21:16:24.362Z,13.08
2022-09-22T21:19:41.224Z,12.48
2022-09-22T21:22:59.345Z,13.08
2022-09-22T21:26:17.604Z,13.38
2022-09-22T21:29:34.081Z,12.98
2022-09-22T21:32:50.585Z,11.80
2022-09-22T21:36:17.911Z,12.28
2022-09-22T21:39:33.921Z,12.58
2022-09-22T21:42:51.727Z,12.43
2022-09-22T21:46:11.920Z,13.18
2022-09-22T21:49:29.550Z,12.90
2022-09-22T21:52:47.149Z,12.45
2022-09-22T21:56:11.944Z,12.70
2022-09-22T21:59:28.526Z,12.80
2022-09-22T22:02:54.676Z,11.90
2022-09-22T22:06:14.563Z,12.50
2022-09-22T22:09:31.516Z,12.90
2022-09-22T22:12:50.333Z,13.35
2022-09-22T22:16:10.024Z,13.73
2022-09-22T22:19:29.181Z,13.50
2022-09-22T22:22:45.640Z,12.83
2022-09-22T22:26:08.531Z,13.28
2022-09-22T22:29:26.098Z,14.30
2022-09-22T22:32:43.176Z,13.48
2022-09-22T22:36:04.182Z,13.75
2022-09-22T22:39:21.117Z,13.45
2022-09-22T22:42:37.200Z,14.05
2022-09-22T22:45:54.345Z,13.15
2022-09-22T22:49:12.473Z,14.45
2022-09-22T22:52:28.611Z,13.43
2022-09-22T22:55:46.274Z,13.93
2022-09-22T22:59:03.207Z,14.85
2022-09-22T23:02:19.327Z,14.48
2022-09-22T23:05:39.536Z,13.63
2022-09-22T23:08:54.534Z,15.13
2022-09-22T23:12:11.634Z,14.73
2022-09-22T23:15:27.970Z,15.00
2022-09-22T23:18:46.386Z,15.43
2022-09-22T23:22:03.690Z,15.57
2022-09-22T23:25:20.887Z,15.75
2022-09-22T23:28:38.784Z,15.55
2022-09-22T23:31:54.844Z,15.85
2022-09-22T23:35:11.828Z,17.10
2022-09-22T23:38:28.169Z,16.35
2022-09-22T23:41:44.927Z,16.03
2022-09-22T23:45:01.033Z,15.78
2022-09-22T23:48:17.801Z,15.70
2022-09-22T23:51:33.714Z,15.50
2022-09-22T23:54:49.678Z,16.78
2022-09-22T23:58:06.094Z,16.58
